createdAt,value
2023-05-10T00:02:08.092Z,98251.53
2023-05-10T00:04:37.959Z,98286.22
2023-05-10T00:07:07.840Z,98250.00
2023-05-10T00:09:37.473Z,98249.03
2023-05-10T00:12:09.905Z,98252.53
2023-05-10T00:14:39.664Z,98256.97
2023-05-10T00:17:09.329Z,98263.81
2023-05-10T00:19:39.036Z,98267.44
2023-05-10T00:22:08.753Z,98264.63
2023-05-10T00:24:38.390Z,98264.38
2023-05-10T00:27:10.752Z,98287.22
2023-05-10T00:29:40.505Z,98301.97
2023-05-10T00:32:10.411Z,98297.53
2023-05-10T00:34:40.127Z,98301.72
2023-05-10T00:37:09.834Z,98287.50
2023-05-10T00:39:39.535Z,98290.16
2023-05-10T00:42:11.777Z,98297.78
2023-05-10T00:44:41.903Z,98287.22
2023-05-10T00:47:11.942Z,98282.91
2023-05-10T00:49:41.698Z,98285.38
2023-05-10T00:52:12.023Z,98277.31
2023-05-10T00:54:41.701Z,98276.63
2023-05-10T00:57:14.231Z,98273.28
2023-05-10T00:59:44.205Z,98279.56
2023-05-10T01:02:14.268Z,98260.44
2023-05-10T01:04:44.420Z,98292.22
2023-05-10T01:07:14.354Z,98300.88
2023-05-10T01:09:44.026Z,98319.13
2023-05-10T01:12:17.527Z,98308.53
2023-05-10T01:14:47.490Z,98319.13
2023-05-10T01:17:17.504Z,98319.97
2023-05-10T01:19:47.216Z,98256.41
2023-05-10T01:22:36.994Z,98241.22
2023-05-10T01:25:26.310Z,98235.09
2023-05-10T01:28:26.659Z,98221.00
2023-05-10T01:31:12.974Z,98223.94
2023-05-10T01:33:48.653Z,98203.88
2023-05-10T01:36:27.257Z,97899.28
2023-05-10T01:39:01.389Z,97892.16
2023-05-10T01:41:35.093Z,97888.69
2023-05-10T01:44:11.236Z,97890.50
2023-05-10T01:46:42.909Z,97896.75
2023-05-10T01:49:19.864Z,97900.38
2023-05-10T01:51:55.805Z,97895.91
2023-05-10T01:54:26.527Z,97881.69
2023-05-10T01:57:00.967Z,97879.44
2023-05-10T01:59:34.640Z,97877.78
2023-05-10T02:02:05.439Z,97895.63
2023-05-10T02:04:39.387Z,97906.22
2023-05-10T02:07:09.884Z,97902.88
2023-05-10T02:09:40.539Z,97911.97
2023-05-10T02:12:11.208Z,97961.13
2023-05-10T02:14:41.386Z,97978.00
2023-05-10T02:17:11.994Z,97996.41
2023-05-10T02:19:46.456Z,98013.25
2023-05-10T02:22:16.893Z,98025.53
2023-05-10T02:24:47.786Z,98018.53
2023-05-10T02:27:18.366Z,98020.22
2023-05-10T02:29:48.508Z,98018.25
2023-05-10T02:32:20.171Z,98007.66
2023-05-10T02:34:53.140Z,97998.59
2023-05-10T02:37:23.894Z,97988.16
2023-05-10T02:39:54.920Z,97975.91
2023-05-10T02:42:28.129Z,97972.41
2023-05-10T02:45:00.114Z,97971.19
2023-05-10T02:47:29.947Z,97961.59
2023-05-10T02:50:02.423Z,97963.41
2023-05-10T02:52:42.523Z,97964.53
2023-05-10T02:55:16.103Z,97962.00
2023-05-10T02:57:57.426Z,97951.69
2023-05-10T03:00:28.331Z,97955.47
2023-05-10T03:02:58.211Z,97946.56
2023-05-10T03:05:31.553Z,97943.91
2023-05-10T03:08:05.293Z,97944.34
2023-05-10T03:10:36.859Z,97929.59
2023-05-10T03:13:13.855Z,97914.69
2023-05-10T03:15:49.578Z,97912.06
2023-05-10T03:18:23.456Z,97903.13
2023-05-10T03:21:02.088Z,97889.91
2023-05-10T03:23:39.558Z,97871.53
2023-05-10T03:26:10.008Z,97867.22
2023-05-10T03:28:40.349Z,97862.34
2023-05-10T03:31:10.398Z,97844.00
2023-05-10T03:33:49.998Z,97827.44
2023-05-10T03:36:27.638Z,97822.28
2023-05-10T03:38:58.593Z,97814.50
2023-05-10T03:41:28.800Z,97831.19
2023-05-10T03:43:58.584Z,97837.31
2023-05-10T03:46:28.469Z,97839.13
2023-05-10T03:48:58.269Z,97846.81
2023-05-10T03:51:32.205Z,97853.66
2023-05-10T03:54:02.277Z,97853.50
2023-05-10T03:56:32.047Z,97844.56
2023-05-10T03:59:01.989Z,97860.16
2023-05-10T04:01:31.829Z,97849.72
2023-05-10T04:04:01.510Z,97839.81
2023-05-10T04:06:34.344Z,97839.81
2023-05-10T04:09:05.441Z,97840.78
2023-05-10T04:11:35.211Z,97853.50
2023-05-10T04:14:04.892Z,97865.06
2023-05-10T04:16:34.564Z,97883.88
2023-05-10T04:19:04.904Z,97894.59
2023-05-10T04:21:37.125Z,97909.50
2023-05-10T04:24:07.606Z,97928.84
2023-05-10T04:26:37.280Z,97959.91
2023-05-10T04:29:06.991Z,98082.59
2023-05-10T04:31:37.426Z,98092.50
2023-05-10T04:34:07.098Z,98120.34
2023-05-10T04:36:39.345Z,98149.31
2023-05-10T04:39:10.135Z,98168.66
2023-05-10T04:41:41.647Z,98187.31
2023-05-10T04:44:11.360Z,98209.47
2023-05-10T04:46:41.079Z,98222.53
2023-05-10T04:49:10.846Z,98249.97
2023-05-10T04:51:43.090Z,98271.16
2023-05-10T04:54:12.804Z,98291.47
2023-05-10T04:56:42.480Z,98318.47
2023-05-10T04:59:12.217Z,98339.53
2023-05-10T05:01:41.932Z,98357.22
2023-05-10T05:04:11.634Z,98367.53
2023-05-10T05:06:44.517Z,98388.56
2023-05-10T05:09:14.210Z,98410.41
2023-05-10T05:11:44.041Z,98410.41
2023-05-10T05:14:13.723Z,98432.31
2023-05-10T05:16:43.467Z,98439.28
2023-05-10T05:19:13.249Z,98440.94
2023-05-10T05:21:45.743Z,98455.97
2023-05-10T05:24:15.515Z,98440.94
2023-05-10T05:26:45.302Z,98459.59
2023-05-10T05:29:14.977Z,98469.91
2023-05-10T05:31:44.754Z,98483.84
2023-05-10T05:34:14.480Z,98489.13
2023-05-10T05:36:46.791Z,98503.94
2023-05-10T05:39:16.605Z,98501.16
2023-05-10T05:41:47.228Z,98504.50
2023-05-10T05:44:16.974Z,98521.91
2023-05-10T05:46:46.580Z,98530.13
2023-05-10T05:49:16.284Z,98515.06
2023-05-10T05:51:50.610Z,98496.41
2023-05-10T05:54:20.443Z,98495.31
2023-05-10T05:56:50.114Z,98496.03
2023-05-10T05:59:19.780Z,98487.09
2023-05-10T06:01:49.528Z,98492.97
2023-05-10T06:04:19.672Z,98484.75
2023-05-10T06:06:51.971Z,98485.34
2023-05-10T06:09:21.963Z,98507.13
2023-05-10T06:11:51.736Z,98495.53
2023-05-10T06:14:21.430Z,98492.91
2023-05-10T06:16:51.173Z,98486.63
2023-05-10T06:19:20.854Z,98493.47
2023-05-10T06:21:53.910Z,98492.63
2023-05-10T06:24:23.749Z,98497.91
2023-05-10T06:26:53.430Z,98500.41
2023-05-10T06:29:23.214Z,98494.03
2023-05-10T06:31:52.978Z,98470.91
2023-05-10T06:34:22.775Z,98470.06
2023-05-10T06:36:55.136Z,98468.41
2023-05-10T06:39:24.904Z,98469.78
2023-05-10T06:41:55.466Z,98474.25
2023-05-10T06:44:25.211Z,98489.88
2023-05-10T06:46:56.344Z,98491.53
2023-05-10T06:49:26.070Z,98484.00
2023-05-10T06:51:59.411Z,98490.88
2023-05-10T06:54:29.189Z,98494.06
2023-05-10T06:56:59.000Z,98483.63
2023-05-10T06:59:28.752Z,98491.16
2023-05-10T07:01:58.521Z,98505.94
2023-05-10T07:04:28.826Z,98516.41
2023-05-10T07:07:01.126Z,98500.50
2023-05-10T07:09:31.365Z,98489.66
2023-05-10T07:12:01.125Z,98475.41
2023-05-10T07:14:30.865Z,98476.81
2023-05-10T07:17:00.559Z,98466.91
2023-05-10T07:19:30.502Z,98462.56
2023-05-10T07:22:02.833Z,98458.09
2023-05-10T07:24:32.620Z,98450.03
2023-05-10T07:27:02.376Z,98440.13
2023-05-10T07:29:32.275Z,98424.94
2023-05-10T07:32:02.322Z,98412.22
2023-05-10T07:34:32.824Z,98398.03
2023-05-10T07:37:05.516Z,98383.06
2023-05-10T07:39:35.557Z,98378.91
2023-05-10T07:42:05.238Z,98369.97
2023-05-10T07:44:34.914Z,98362.03
2023-05-10T07:47:04.606Z,98356.47
2023-05-10T07:49:34.396Z,98346.41
2023-05-10T07:52:07.072Z,98348.22
2023-05-10T07:54:36.788Z,98324.38
2023-05-10T07:57:06.546Z,98309.31
2023-05-10T07:59:36.407Z,98291.16
2023-05-10T08:02:06.070Z,98280.72
2023-05-10T08:04:35.869Z,98267.19
2023-05-10T08:07:08.382Z,98262.34
2023-05-10T08:09:38.154Z,98247.28
2023-05-10T08:12:08.837Z,98235.41
2023-05-10T08:14:38.935Z,98220.91
2023-05-10T08:17:08.625Z,98216.59
2023-05-10T08:19:38.410Z,98206.38
2023-05-10T08:22:11.328Z,98199.41
2023-05-10T08:24:43.055Z,98197.84
2023-05-10T08:27:12.837Z,98193.22
2023-05-10T08:29:50.212Z,98187.81
2023-05-10T08:32:20.475Z,98177.75
2023-05-10T08:34:50.118Z,98151.31
2023-05-10T08:37:22.509Z,98135.66
2023-05-10T08:39:52.228Z,98116.69
2023-05-10T08:42:23.978Z,98126.22
2023-05-10T08:44:54.039Z,98110.00
2023-05-10T08:47:24.317Z,98096.44
2023-05-10T08:49:54.480Z,98078.94
2023-05-10T08:52:28.963Z,98093.41
2023-05-10T08:54:58.756Z,98069.13
2023-05-10T08:57:29.074Z,98045.31
2023-05-10T08:59:58.962Z,98021.50
2023-05-10T09:02:29.076Z,98010.00
2023-05-10T09:04:59.048Z,97996.59
2023-05-10T09:07:31.550Z,97958.03
2023-05-10T09:10:01.976Z,97936.81
2023-05-10T09:12:31.826Z,97904.47
2023-05-10T09:15:02.548Z,97881.28
2023-05-10T09:17:33.193Z,97850.94
2023-05-10T09:20:03.805Z,97816.78
2023-05-10T09:22:36.810Z,97780.81
2023-05-10T09:25:12.148Z,97750.44
2023-05-10T09:27:42.636Z,97723.41
2023-05-10T09:30:13.188Z,97676.81
2023-05-10T09:32:44.303Z,97641.31
2023-05-10T09:35:15.011Z,97605.66
2023-05-10T09:37:48.908Z,97576.28
2023-05-10T09:40:19.717Z,97560.53
2023-05-10T09:42:55.847Z,97534.81
2023-05-10T09:45:26.396Z,97508.94
2023-05-10T09:47:56.809Z,97482.75
2023-05-10T09:50:26.969Z,97476.47
2023-05-10T09:53:01.280Z,97466.69
2023-05-10T09:55:42.743Z,97486.28
2023-05-10T09:58:13.323Z,97501.72
2023-05-10T10:00:44.617Z,97507.00
2023-05-10T10:03:17.165Z,97496.03
2023-05-10T10:05:48.381Z,97501.34
2023-05-10T10:08:21.654Z,97498.53
2023-05-10T10:10:51.557Z,97497.22
2023-05-10T10:13:21.368Z,97482.63
2023-05-10T10:15:52.291Z,97476.47
2023-05-10T10:18:24.945Z,97442.81
2023-05-10T10:20:55.560Z,97439.31
2023-05-10T10:23:28.044Z,97422.06
2023-05-10T10:25:58.832Z,97431.81
2023-05-10T10:28:34.473Z,97425.84
2023-05-10T10:31:15.460Z,97422.00
2023-05-10T10:33:58.484Z,97423.50
2023-05-10T10:36:28.829Z,97415.53
2023-05-10T10:39:04.281Z,97384.88
2023-05-10T10:41:36.472Z,97375.53
2023-05-10T10:44:27.883Z,97353.16
2023-05-10T10:47:07.016Z,97338.34
2023-05-10T10:49:41.727Z,97337.00
2023-05-10T10:52:18.938Z,97335.19
2023-05-10T10:54:57.294Z,97318.72
2023-05-10T10:57:27.734Z,97312.75
2023-05-10T11:00:22.870Z,97303.31
2023-05-10T11:02:54.375Z,97307.44
2023-05-10T11:05:29.008Z,97310.66
2023-05-10T11:08:00.048Z,97315.47
2023-05-10T11:10:32.680Z,97317.28
2023-05-10T11:13:03.998Z,97327.09
2023-05-10T11:15:34.724Z,97333.63
2023-05-10T11:18:20.915Z,97307.91
2023-05-10T11:20:54.695Z,97297.13
2023-05-10T11:23:24.723Z,97300.41
2023-05-10T11:25:58.121Z,97313.50
2023-05-10T11:28:28.038Z,97342.91
2023-05-10T11:30:58.605Z,97343.06
2023-05-10T11:33:28.306Z,97350.78
2023-05-10T11:35:57.952Z,97353.75
2023-05-10T11:38:27.695Z,97355.25
2023-05-10T11:40:59.999Z,97354.53
2023-05-10T11:43:31.957Z,97334.91
2023-05-10T11:46:01.713Z,97348.53
2023-05-10T11:48:33.592Z,97346.88
2023-05-10T11:51:04.828Z,97349.69
2023-05-10T11:53:36.164Z,97353.84
2023-05-10T11:56:13.040Z,97362.66
2023-05-10T11:58:43.481Z,97360.28
2023-05-10T12:01:13.494Z,97361.22
2023-05-10T12:03:44.259Z,97366.03
2023-05-10T12:06:14.227Z,97369.97
2023-05-10T12:08:48.354Z,97368.44
2023-05-10T12:11:22.049Z,97371.41
2023-05-10T12:13:51.952Z,97363.06
2023-05-10T12:16:23.860Z,97376.22
2023-05-10T12:18:54.691Z,97373.66
2023-05-10T12:21:25.005Z,97381.28
2023-05-10T12:23:56.550Z,97380.13
2023-05-10T12:26:29.903Z,97390.56
2023-05-10T12:29:15.019Z,97403.66
2023-05-10T12:31:56.205Z,97407.50
2023-05-10T12:34:30.060Z,97410.81
2023-05-10T12:36:59.790Z,97406.69
2023-05-10T12:39:29.518Z,97419.97
2023-05-10T12:42:01.871Z,97427.28
2023-05-10T12:44:31.626Z,97434.31
2023-05-10T12:47:01.290Z,97440.09
2023-05-10T12:49:31.056Z,97436.56
2023-05-10T12:52:00.817Z,97448.19
2023-05-10T12:54:30.591Z,97453.47
2023-05-10T12:57:02.881Z,97453.09
2023-05-10T12:59:32.583Z,97459.06
2023-05-10T13:02:02.242Z,97463.66
2023-05-10T13:04:32.009Z,97469.94
2023-05-10T13:07:01.788Z,97472.34
2023-05-10T13:09:32.159Z,97476.78
2023-05-10T13:12:04.681Z,97482.41
2023-05-10T13:14:35.167Z,97487.47
2023-05-10T13:17:05.124Z,97491.06
2023-05-10T13:19:34.967Z,97488.53
2023-05-10T13:22:04.739Z,97504.50
2023-05-10T13:24:34.381Z,97514.66
2023-05-10T13:27:06.826Z,97532.75
2023-05-10T13:29:36.570Z,97546.06
2023-05-10T13:32:06.338Z,97564.69
2023-05-10T13:34:36.798Z,97588.94
2023-05-10T13:37:06.492Z,97604.16
2023-05-10T13:39:38.590Z,97603.25
2023-05-10T13:42:10.946Z,97617.78
2023-05-10T13:44:41.141Z,97628.06
2023-05-10T13:47:11.451Z,97637.50
2023-05-10T13:49:41.101Z,97646.31
2023-05-10T13:52:11.240Z,97664.06
2023-05-10T13:54:40.964Z,97695.06
2023-05-10T13:57:15.017Z,97707.06
2023-05-10T13:59:44.756Z,97713.22
2023-05-10T14:02:14.565Z,97714.72
2023-05-10T14:04:44.360Z,97727.03
2023-05-10T14:07:14.049Z,97718.47
2023-05-10T14:09:43.733Z,97701.91
2023-05-10T14:12:16.447Z,97693.84
2023-05-10T14:14:46.356Z,97706.81
2023-05-10T14:17:16.070Z,97735.47
2023-05-10T14:19:45.705Z,97743.91
2023-05-10T14:22:15.481Z,97751.41
2023-05-10T14:24:47.806Z,97762.16
2023-05-10T14:27:20.606Z,97766.34
2023-05-10T14:29:51.150Z,97767.91
2023-05-10T14:32:21.061Z,97767.75
2023-05-10T14:34:50.828Z,97774.13
2023-05-10T14:37:20.499Z,97766.81
2023-05-10T14:39:50.181Z,97769.47
2023-05-10T14:42:22.772Z,97775.44
2023-05-10T14:44:52.501Z,97771.44
2023-05-10T14:47:22.285Z,97765.41
2023-05-10T14:49:51.998Z,97749.41
2023-05-10T14:52:21.688Z,97738.50
2023-05-10T14:54:51.545Z,97742.56
2023-05-10T14:57:23.802Z,97740.50
2023-05-10T14:59:53.503Z,97751.28
2023-05-10T15:02:23.603Z,97770.03
2023-05-10T15:04:53.722Z,97791.66
2023-05-10T15:07:23.852Z,97805.50
2023-05-10T15:09:54.113Z,97820.41
2023-05-10T15:12:26.409Z,97805.94
2023-05-10T15:14:56.200Z,97805.25
2023-05-10T15:17:26.063Z,97800.44
2023-05-10T15:19:55.842Z,97809.91
2023-05-10T15:22:25.786Z,97840.03
2023-05-10T15:24:55.726Z,97859.53
2023-05-10T15:27:28.073Z,97854.50
2023-05-10T15:29:58.004Z,97864.63
2023-05-10T15:32:28.163Z,97858.00
2023-05-10T15:34:58.262Z,97873.31
2023-05-10T15:37:28.674Z,97898.19
2023-05-10T15:40:04.183Z,97922.00
2023-05-10T15:42:37.250Z,97930.69
2023-05-10T15:45:12.639Z,97945.69
2023-05-10T15:47:43.067Z,97942.84
2023-05-10T15:50:15.765Z,97942.38
2023-05-10T15:52:45.665Z,97955.34
2023-05-10T15:55:16.240Z,97955.53
2023-05-10T15:57:49.076Z,97970.53
2023-05-10T16:00:19.629Z,97990.19
2023-05-10T16:02:49.526Z,97996.09
2023-05-10T16:05:19.759Z,98001.28
2023-05-10T16:07:49.704Z,97997.28
2023-05-10T16:10:19.593Z,97986.97
2023-05-10T16:12:51.907Z,97981.16
2023-05-10T16:15:21.872Z,97974.69
2023-05-10T16:17:51.698Z,97966.56
2023-05-10T16:20:21.399Z,97950.44
2023-05-10T16:22:51.060Z,97952.34
2023-05-10T16:25:21.174Z,97955.22
2023-05-10T16:27:53.661Z,97971.38
2023-05-10T16:30:24.552Z,97971.56
2023-05-10T16:32:54.440Z,97968.09
2023-05-10T16:35:24.235Z,97976.25
2023-05-10T16:37:54.063Z,97969.56
2023-05-10T16:40:24.123Z,97968.91
2023-05-10T16:42:56.388Z,97966.78
2023-05-10T16:45:27.041Z,97971.09
2023-05-10T16:47:57.637Z,97997.22
2023-05-10T16:50:27.380Z,98032.16
2023-05-10T16:52:57.008Z,98067.38
2023-05-10T16:55:26.988Z,98089.78
2023-05-10T16:58:01.007Z,98098.06
2023-05-10T17:00:30.814Z,98095.03
2023-05-10T17:03:00.880Z,98091.66
2023-05-10T17:05:30.722Z,98079.78
2023-05-10T17:08:00.404Z,98077.94
2023-05-10T17:10:30.127Z,98070.09
2023-05-10T17:13:03.087Z,98066.69
2023-05-10T17:15:32.850Z,98063.72
2023-05-10T17:18:02.567Z,98053.72
2023-05-10T17:20:32.284Z,98048.41
2023-05-10T17:23:03.406Z,98042.72
2023-05-10T17:25:33.221Z,98048.53
2023-05-10T17:28:05.648Z,98036.84
2023-05-10T17:30:35.409Z,98035.66
2023-05-10T17:33:05.437Z,98021.38
2023-05-10T17:35:35.426Z,98015.09
2023-05-10T17:38:05.477Z,98016.09
2023-05-10T17:40:35.593Z,98003.00
2023-05-10T17:43:08.129Z,97993.59
2023-05-10T17:45:40.317Z,97988.44
2023-05-10T17:48:11.552Z,97984.78
2023-05-10T17:50:41.574Z,97990.41
2023-05-10T17:53:11.232Z,97985.44
2023-05-10T17:55:43.871Z,97971.47
2023-05-10T17:58:16.398Z,97971.47
2023-05-10T18:00:46.484Z,97970.78
2023-05-10T18:03:16.479Z,97974.81
2023-05-10T18:05:46.238Z,97965.00
2023-05-10T18:08:22.993Z,97965.84
2023-05-10T18:10:52.747Z,97966.69
2023-05-10T18:13:25.782Z,97969.34
2023-05-10T18:15:55.785Z,97971.47
2023-05-10T18:18:25.717Z,97963.16
2023-05-10T18:20:57.791Z,97968.91
2023-05-10T18:23:27.773Z,97970.75
2023-05-10T18:25:57.722Z,97981.69
2023-05-10T18:28:30.304Z,97976.50
2023-05-10T18:31:00.499Z,97981.75
2023-05-10T18:33:30.182Z,97975.56
2023-05-10T18:36:00.053Z,97982.16
2023-05-10T18:38:29.980Z,97980.00
2023-05-10T18:41:00.282Z,97973.03
2023-05-10T18:43:34.120Z,97972.72
2023-05-10T18:46:03.915Z,97963.25
2023-05-10T18:48:33.746Z,97956.78
2023-05-10T18:51:03.433Z,97954.13
2023-05-10T18:53:33.923Z,97947.84
2023-05-10T18:56:03.630Z,97945.03
2023-05-10T18:58:36.695Z,97941.53
2023-05-10T19:01:07.147Z,97940.22
2023-05-10T19:03:38.994Z,97945.34
2023-05-10T19:06:09.387Z,97946.34
2023-05-10T19:08:39.179Z,97944.53
2023-05-10T19:11:08.933Z,97951.81
2023-05-10T19:13:41.423Z,97948.16
2023-05-10T19:16:15.594Z,97948.47
2023-05-10T19:18:46.032Z,97946.13
2023-05-10T19:21:16.820Z,97954.09
2023-05-10T19:23:48.276Z,97954.09
2023-05-10T19:26:18.010Z,97956.75
2023-05-10T19:28:50.500Z,97967.50
2023-05-10T19:31:20.521Z,97964.13
2023-05-10T19:33:50.665Z,97962.34
2023-05-10T19:36:20.295Z,97964.13
2023-05-10T19:38:49.988Z,97964.13
2023-05-10T19:41:19.824Z,97962.78
2023-05-10T19:43:53.137Z,97967.41
2023-05-10T19:46:23.519Z,97963.09
2023-05-10T19:48:53.316Z,97963.25
2023-05-10T19:51:23.163Z,97965.88
2023-05-10T19:53:52.885Z,97963.41
2023-05-10T19:56:22.554Z,97964.56
2023-05-10T19:58:54.938Z,97976.16
2023-05-10T20:01:24.797Z,97984.25
2023-05-10T20:03:55.053Z,97991.66
2023-05-10T20:06:24.753Z,97992.81
2023-05-10T20:08:54.375Z,97993.09
2023-05-10T20:11:24.369Z,97995.25
2023-05-10T20:13:57.059Z,98001.81
2023-05-10T20:16:27.030Z,97997.81
2023-05-10T20:18:57.254Z,98003.28
2023-05-10T20:21:27.391Z,97999.97
2023-05-10T20:23:58.981Z,98003.56
2023-05-10T20:26:29.068Z,97995.94
2023-05-10T20:29:01.303Z,98002.22
2023-05-10T20:31:31.086Z,97995.25
2023-05-10T20:34:00.760Z,97999.03
2023-05-10T20:36:31.338Z,97994.19
2023-05-10T20:39:01.104Z,97998.00
2023-05-10T20:41:30.792Z,97997.59
2023-05-10T20:44:03.265Z,97990.78
2023-05-10T20:46:33.175Z,98001.69
2023-05-10T20:49:03.021Z,97999.34
2023-05-10T20:51:33.475Z,97992.53
2023-05-10T20:54:04.469Z,97992.81
2023-05-10T20:56:35.074Z,97984.34
2023-05-10T20:59:07.362Z,97992.41
2023-05-10T21:01:37.168Z,97989.09
2023-05-10T21:04:06.893Z,97987.75
2023-05-10T21:06:36.631Z,97989.69
2023-05-10T21:09:06.636Z,97985.25
2023-05-10T21:11:38.493Z,97983.72
2023-05-10T21:14:10.723Z,97985.00
2023-05-10T21:16:40.628Z,97980.81
2023-05-10T21:19:10.374Z,97984.44
2023-05-10T21:21:40.140Z,97985.91
2023-05-10T21:24:10.429Z,97984.81
2023-05-10T21:26:40.082Z,97988.31
2023-05-10T21:29:12.812Z,97987.75
2023-05-10T21:31:42.530Z,97985.56
2023-05-10T21:34:14.272Z,97991.69
2023-05-10T21:36:43.924Z,97991.84
2023-05-10T21:39:14.062Z,97985.00
2023-05-10T21:41:44.482Z,97988.47
2023-05-10T21:44:16.801Z,97983.34
2023-05-10T21:46:46.576Z,97988.75
2023-05-10T21:49:16.243Z,97983.63
2023-05-10T21:51:45.879Z,97967.06
2023-05-10T21:54:15.545Z,97971.47
2023-05-10T21:56:45.191Z,97972.34
2023-05-10T21:59:18.161Z,97968.84
2023-05-10T22:01:47.939Z,97973.44
2023-05-10T22:04:17.609Z,97973.44
2023-05-10T22:06:47.966Z,97977.09
2023-05-10T22:09:17.705Z,97975.41
2023-05-10T22:11:48.728Z,97980.31
2023-05-10T22:14:21.063Z,97974.63
2023-05-10T22:16:50.823Z,97983.00
2023-05-10T22:19:20.495Z,97987.75
2023-05-10T22:21:50.101Z,97990.53
2023-05-10T22:24:19.729Z,97985.53
2023-05-10T22:26:49.437Z,97977.75
2023-05-10T22:29:21.702Z,97986.38
2023-05-10T22:31:51.526Z,97970.50
2023-05-10T22:34:21.293Z,97976.63
2023-05-10T22:36:51.062Z,97975.38
2023-05-10T22:39:20.712Z,97970.22
2023-05-10T22:41:50.494Z,97973.81
2023-05-10T22:44:22.784Z,97971.47
2023-05-10T22:46:52.614Z,97967.16
2023-05-10T22:49:22.471Z,97965.66
2023-05-10T22:51:52.423Z,97960.50
2023-05-10T22:54:22.095Z,97962.59
2023-05-10T22:56:51.789Z,97955.91
2023-05-10T22:59:24.416Z,97962.66
2023-05-10T23:01:54.193Z,97971.00
2023-05-10T23:04:24.180Z,97972.53
2023-05-10T23:06:53.870Z,97975.50
2023-05-10T23:09:23.516Z,97969.53
2023-05-10T23:11:53.324Z,97977.31
2023-05-10T23:14:25.909Z,97976.16
2023-05-10T23:16:55.661Z,97966.44
2023-05-10T23:19:25.305Z,97971.44
2023-05-10T23:21:55.167Z,97966.84
2023-05-10T23:24:24.864Z,97962.22
2023-05-10T23:26:54.846Z,97962.09
2023-05-10T23:29:27.237Z,97956.78
2023-05-10T23:31:57.026Z,97958.47
2023-05-10T23:34:26.785Z,97962.91
2023-05-10T23:36:56.615Z,97957.63
2023-05-10T23:39:26.401Z,97953.88
2023-05-10T23:41:56.052Z,97949.41
2023-05-10T23:44:28.422Z,97955.53
2023-05-10T23:46:58.170Z,97947.75
2023-05-10T23:49:27.791Z,97961.81
2023-05-10T23:51:57.472Z,97954.84
2023-05-10T23:54:27.166Z,97950.53
2023-05-10T23:56:57.003Z,97946.06
2023-05-10T23:59:29.387Z,97941.75
